createdAt,value
2018-08-13T00:02:14.601Z,1.47
2018-08-13T00:04:43.347Z,1.67
2018-08-13T00:07:11.805Z,1.80
2018-08-13T00:09:42.469Z,1.80
2018-08-13T00:12:12.235Z,1.80
2018-08-13T00:14:40.433Z,1.70
2018-08-13T00:17:10.252Z,1.90
2018-08-13T00:19:38.411Z,1.80
2018-08-13T00:22:12.417Z,1.83
2018-08-13T00:24:40.852Z,1.70
2018-08-13T00:27:14.481Z,1.60
2018-08-13T00:29:43.265Z,1.93
2018-08-13T00:32:16.009Z,1.63
2018-08-13T00:34:44.536Z,1.77
2018-08-13T00:37:17.642Z,1.70
2018-08-13T00:39:46.391Z,1.93
2018-08-13T00:42:22.051Z,1.73
2018-08-13T00:44:50.786Z,1.77
2018-08-13T00:47:31.993Z,1.60
2018-08-13T00:50:00.788Z,1.70
2018-08-13T00:52:29.271Z,1.67
2018-08-13T00:54:57.806Z,1.70
2018-08-13T00:57:28.033Z,1.90
2018-08-13T00:59:56.149Z,1.80
2018-08-13T01:02:28.297Z,1.60
2018-08-13T01:04:56.737Z,2.00
2018-08-13T01:07:30.737Z,2.10
2018-08-13T01:12:35.956Z,2.07
2018-08-13T01:15:04.984Z,2.00
2018-08-13T01:17:37.610Z,1.80
2018-08-13T01:20:06.977Z,1.80
2018-08-13T01:22:39.930Z,1.73
2018-08-13T01:25:10.197Z,2.30
2018-08-13T01:27:43.718Z,2.13
2018-08-13T01:30:13.525Z,1.80
2018-08-13T01:32:46.818Z,2.20
2018-08-13T01:35:15.179Z,1.83
2018-08-13T01:37:45.077Z,1.70
2018-08-13T01:40:16.909Z,1.93
2018-08-13T01:42:45.087Z,1.73
2018-08-13T01:45:13.608Z,1.93
2018-08-13T01:47:42.497Z,2.10
2018-08-13T01:50:12.131Z,2.10
2018-08-13T01:52:41.439Z,1.87
2018-08-13T01:55:11.804Z,2.10
2018-08-13T01:57:40.251Z,1.90
2018-08-13T02:00:16.077Z,1.87
2018-08-13T02:02:44.903Z,1.67
2018-08-13T02:05:13.090Z,1.90
2018-08-13T02:07:41.759Z,1.87
2018-08-13T02:10:11.091Z,2.20
2018-08-13T02:12:39.445Z,1.90
2018-08-13T02:15:20.169Z,1.90
2018-08-13T02:17:48.304Z,2.07
2018-08-13T02:20:16.441Z,2.10
2018-08-13T02:22:44.637Z,1.90
2018-08-13T02:25:17.349Z,1.80
2018-08-13T02:27:45.986Z,1.90
2018-08-13T02:30:19.225Z,2.07
2018-08-13T02:32:47.410Z,2.03
2018-08-13T02:37:57.078Z,1.80
2018-08-13T02:40:25.586Z,1.83
2018-08-13T02:42:53.787Z,1.93
2018-08-13T02:45:26.364Z,2.17
2018-08-13T02:47:54.487Z,2.33
2018-08-13T02:50:27.301Z,1.97
2018-08-13T02:52:56.728Z,1.87
2018-08-13T02:57:59.504Z,2.20
2018-08-13T03:00:33.208Z,1.97
2018-08-13T03:03:02.801Z,2.07
2018-08-13T03:05:36.350Z,2.10
2018-08-13T03:08:04.477Z,2.10
2018-08-13T03:10:38.259Z,3.23
2018-08-13T03:13:06.484Z,2.83
2018-08-13T03:15:39.504Z,2.83
2018-08-13T03:18:08.001Z,2.43
2018-08-13T03:20:36.102Z,3.37
2018-08-13T03:23:04.252Z,2.50
2018-08-13T03:25:32.775Z,2.80
2018-08-13T03:28:01.142Z,2.80
2018-08-13T03:30:29.672Z,3.13
2018-08-13T03:32:58.133Z,2.53
2018-08-13T03:35:26.392Z,2.43
2018-08-13T03:37:55.084Z,3.23
2018-08-13T03:40:23.805Z,3.30
2018-08-13T03:42:56.479Z,2.40
2018-08-13T03:45:24.641Z,3.33
2018-08-13T03:47:56.857Z,2.97
2018-08-13T03:50:24.981Z,2.20
2018-08-13T03:52:53.745Z,2.27
2018-08-13T03:55:22.191Z,2.33
2018-08-13T03:57:50.690Z,2.47
2018-08-13T04:00:19.069Z,2.40
2018-08-13T04:02:47.498Z,2.83
2018-08-13T04:05:17.870Z,2.57
2018-08-13T04:07:46.252Z,2.30
2018-08-13T04:10:14.410Z,2.27
2018-08-13T04:12:44.162Z,2.87
2018-08-13T04:15:15.133Z,2.50
2018-08-13T04:17:44.470Z,2.50
2018-08-13T04:20:18.111Z,2.53
2018-08-13T04:22:46.497Z,2.33
2018-08-13T04:25:19.815Z,3.57
2018-08-13T04:27:48.282Z,2.30
2018-08-13T04:30:22.197Z,2.37
2018-08-13T04:32:50.354Z,2.10
2018-08-13T04:35:23.410Z,2.37
2018-08-13T04:37:51.789Z,2.50
2018-08-13T04:42:53.467Z,2.30
2018-08-13T04:45:26.938Z,2.43
2018-08-13T04:47:56.073Z,2.50
2018-08-13T04:52:57.943Z,2.63
2018-08-13T04:55:26.384Z,2.70
2018-08-13T04:57:54.817Z,3.10
2018-08-13T05:00:23.583Z,2.67
2018-08-13T05:02:52.006Z,2.90
2018-08-13T05:05:20.412Z,2.40
2018-08-13T05:07:49.083Z,2.33
2018-08-13T05:10:17.499Z,2.83
2018-08-13T05:12:45.644Z,2.60
2018-08-13T05:15:14.045Z,3.73
2018-08-13T05:17:46.835Z,3.07
2018-08-13T05:20:14.957Z,3.37
2018-08-13T05:22:48.126Z,3.37
2018-08-13T05:25:16.866Z,3.87
2018-08-13T05:27:50.019Z,2.93
2018-08-13T05:30:20.188Z,2.17
2018-08-13T05:32:54.302Z,2.47
2018-08-13T05:35:23.193Z,2.90
2018-08-13T05:37:56.613Z,2.40
2018-08-13T05:40:25.085Z,2.17
2018-08-13T05:42:57.729Z,2.50
2018-08-13T05:45:26.325Z,2.80
2018-08-13T05:47:54.517Z,2.47
2018-08-13T05:50:22.616Z,2.30
2018-08-13T05:52:53.011Z,2.93
2018-08-13T05:55:22.843Z,2.70
2018-08-13T05:57:50.952Z,2.70
2018-08-13T06:00:19.341Z,2.70
2018-08-13T06:02:47.613Z,2.97
2018-08-13T06:05:16.146Z,2.97
2018-08-13T06:07:44.545Z,3.23
2018-08-13T06:10:15.669Z,3.47
2018-08-13T06:12:43.945Z,3.20
2018-08-13T06:15:24.792Z,3.17
2018-08-13T06:17:53.021Z,3.23
2018-08-13T06:20:22.205Z,3.30
2018-08-13T06:22:50.556Z,3.10
2018-08-13T06:25:22.897Z,3.67
2018-08-13T06:27:51.159Z,3.83
2018-08-13T06:30:25.092Z,3.83
2018-08-13T06:32:57.357Z,4.03
2018-08-13T06:35:29.136Z,3.97
2018-08-13T06:37:57.237Z,3.77
2018-08-13T06:40:29.949Z,3.20
2018-08-13T06:42:58.081Z,3.60
2018-08-13T06:45:31.597Z,3.27
2018-08-13T06:48:00.615Z,5.03
2018-08-13T06:50:34.285Z,4.00
2018-08-13T06:53:03.065Z,3.63
2018-08-13T06:58:14.221Z,4.03
2018-08-13T07:00:42.554Z,3.80
2018-08-13T07:03:10.831Z,3.53
2018-08-13T07:05:43.481Z,3.60
2018-08-13T07:08:11.839Z,3.63
2018-08-13T07:10:45.393Z,3.63
2018-08-13T07:13:14.902Z,4.33
2018-08-13T07:15:48.172Z,3.80
2018-08-13T07:18:19.024Z,4.30
2018-08-13T07:20:53.139Z,4.30
2018-08-13T07:23:21.518Z,3.30
2018-08-13T07:25:54.330Z,4.00
2018-08-13T07:28:23.090Z,3.50
2018-08-13T07:30:52.214Z,3.57
2018-08-13T07:33:24.603Z,2.80
2018-08-13T07:35:52.888Z,3.40
2018-08-13T07:38:21.257Z,3.57
2018-08-13T07:40:51.158Z,3.20
2018-08-13T07:45:39.881Z,3.83
2018-08-13T07:48:08.405Z,3.43
2018-08-13T07:50:39.545Z,3.33
2018-08-13T07:53:20.883Z,3.40
2018-08-13T07:55:49.054Z,3.20
2018-08-13T07:58:17.320Z,3.03
2018-08-13T08:00:45.529Z,3.30
2018-08-13T08:03:16.492Z,2.93
2018-08-13T08:05:44.939Z,3.33
2018-08-13T08:08:25.830Z,2.80
2018-08-13T08:10:56.833Z,3.20
2018-08-13T08:13:25.209Z,3.33
2018-08-13T08:15:53.722Z,2.93
2018-08-13T08:18:24.671Z,2.97
2018-08-13T08:20:53.153Z,2.40
2018-08-13T08:23:25.529Z,3.10
2018-08-13T08:25:54.097Z,3.10
2018-08-13T08:28:26.818Z,2.70
2018-08-13T08:30:56.476Z,2.90
2018-08-13T08:33:32.802Z,2.80
2018-08-13T08:36:02.510Z,3.00
2018-08-13T08:38:33.754Z,2.70
2018-08-13T08:41:04.790Z,2.13
2018-08-13T08:43:37.098Z,2.17
2018-08-13T08:46:12.448Z,2.57
2018-08-13T08:48:40.954Z,2.57
2018-08-13T08:51:09.103Z,2.37
2018-08-13T08:53:41.832Z,2.57
2018-08-13T08:56:09.934Z,2.43
2018-08-13T08:58:43.087Z,2.60
2018-08-13T09:01:12.234Z,2.67
2018-08-13T09:03:48.169Z,2.60
2018-08-13T09:06:16.342Z,2.70
2018-08-13T09:08:51.183Z,2.57
2018-08-13T09:11:20.113Z,2.07
2018-08-13T09:14:00.793Z,2.30
2018-08-13T09:16:29.062Z,2.00
2018-08-13T09:19:05.057Z,2.40
2018-08-13T09:21:34.652Z,2.20
2018-08-13T09:24:09.003Z,2.27
2018-08-13T09:26:44.193Z,2.40
2018-08-13T09:29:18.301Z,2.27
2018-08-13T09:32:18.903Z,2.30
2018-08-13T09:35:27.646Z,2.30
2018-08-13T09:37:56.805Z,2.20
2018-08-13T09:40:25.351Z,1.90
2018-08-13T09:42:53.977Z,2.30
2018-08-13T09:45:22.167Z,2.20
2018-08-13T09:47:50.291Z,2.70
2018-08-13T09:50:20.738Z,2.97
2018-08-13T09:52:49.910Z,2.50
2018-08-13T09:55:18.447Z,2.40
2018-08-13T09:57:48.439Z,2.77
2018-08-13T10:00:26.902Z,2.10
2018-08-13T10:02:55.810Z,2.30
2018-08-13T10:05:24.025Z,2.47
2018-08-13T10:07:52.628Z,2.47
2018-08-13T10:10:24.717Z,2.43
2018-08-13T10:12:53.244Z,2.17
2018-08-13T10:15:24.574Z,2.23
2018-08-13T10:17:53.386Z,2.30
2018-08-13T10:20:25.804Z,2.10
2018-08-13T10:22:54.639Z,2.20
2018-08-13T10:25:26.790Z,2.00
2018-08-13T10:27:55.278Z,1.80
2018-08-13T10:30:24.797Z,1.70
2018-08-13T10:32:53.674Z,1.87
2018-08-13T10:35:22.041Z,1.77
2018-08-13T10:37:51.218Z,1.90
2018-08-13T10:40:21.196Z,2.03
2018-08-13T10:42:49.694Z,2.00
2018-08-13T10:45:18.889Z,1.80
2018-08-13T10:47:47.658Z,1.80
2018-08-13T10:50:15.792Z,1.90
2018-08-13T10:52:44.361Z,1.98
2018-08-13T10:55:14.768Z,1.82
2018-08-13T10:57:55.974Z,2.75
2018-08-13T11:00:24.914Z,2.60
2018-08-13T11:02:53.249Z,2.10
2018-08-13T11:05:22.033Z,1.80
2018-08-13T11:07:54.336Z,2.10
2018-08-13T11:10:22.574Z,1.80
2018-08-13T11:12:55.030Z,1.90
2018-08-13T11:15:23.630Z,1.97
2018-08-13T11:17:56.245Z,2.05
2018-08-13T11:20:25.210Z,2.05
2018-08-13T11:22:53.569Z,1.80
2018-08-13T11:25:22.098Z,1.90
2018-08-13T11:27:52.622Z,1.90
2018-08-13T11:30:21.301Z,1.77
2018-08-13T11:32:51.312Z,1.90
2018-08-13T11:35:20.080Z,1.77
2018-08-13T11:37:48.957Z,2.30
2018-08-13T11:40:18.728Z,2.40
2018-08-13T11:42:50.219Z,2.73
2018-08-13T11:45:19.773Z,3.03
2018-08-13T11:47:49.306Z,3.13
2018-08-13T11:50:20.917Z,3.10
2018-08-13T11:52:51.482Z,4.07
2018-08-13T11:55:21.540Z,3.30
2018-08-13T11:57:50.818Z,3.80
2018-08-13T12:00:23.161Z,3.50
2018-08-13T12:02:51.271Z,2.67
2018-08-13T12:05:33.106Z,2.93
2018-08-13T12:08:02.762Z,2.73
2018-08-13T12:10:34.873Z,2.93
2018-08-13T12:13:03.305Z,2.23
2018-08-13T12:15:31.484Z,2.83
2018-08-13T12:18:00.218Z,2.57
2018-08-13T12:20:30.954Z,2.77
2018-08-13T12:22:59.333Z,1.97
2018-08-13T12:25:33.770Z,2.30
2018-08-13T12:28:03.506Z,2.13
2018-08-13T12:30:44.698Z,2.47
2018-08-13T12:33:13.467Z,2.33
2018-08-13T12:35:41.817Z,2.27
2018-08-13T12:38:11.757Z,2.33
2018-08-13T12:40:40.549Z,2.30
2018-08-13T12:43:08.941Z,2.70
2018-08-13T12:45:44.043Z,2.20
2018-08-13T12:48:13.470Z,2.60
2018-08-13T12:50:46.516Z,2.30
2018-08-13T12:53:15.772Z,2.63
2018-08-13T12:55:56.433Z,2.90
2018-08-13T12:58:26.321Z,2.50
2018-08-13T13:00:58.165Z,2.10
2018-08-13T13:03:26.296Z,2.13
2018-08-13T13:05:54.574Z,2.00
2018-08-13T13:08:23.232Z,1.87
2018-08-13T13:14:03.101Z,1.83
2018-08-13T13:16:32.214Z,2.57
2018-08-13T13:19:03.738Z,2.20
2018-08-13T13:21:32.626Z,1.90
2018-08-13T13:24:13.667Z,2.10
2018-08-13T13:26:42.970Z,2.00
2018-08-13T13:29:11.537Z,1.90
2018-08-13T13:31:41.561Z,1.87
2018-08-13T13:34:13.245Z,1.90
2018-08-13T13:36:43.158Z,2.43
2018-08-13T13:39:16.439Z,2.30
2018-08-13T13:41:45.054Z,2.33
2018-08-13T13:44:17.204Z,2.57
2018-08-13T13:46:45.684Z,2.80
2018-08-13T13:49:18.604Z,2.03
2018-08-13T13:51:49.897Z,2.27
2018-08-13T13:54:21.192Z,2.20
2018-08-13T13:56:49.672Z,2.30
2018-08-13T13:59:24.478Z,3.10
2018-08-13T14:01:52.799Z,2.03
2018-08-13T14:04:30.286Z,2.20
2018-08-13T14:06:58.593Z,2.10
2018-08-13T14:09:29.117Z,1.57
2018-08-13T14:11:57.829Z,2.53
2018-08-13T14:14:38.559Z,2.53
2018-08-13T14:17:08.622Z,1.90
2018-08-13T14:19:36.776Z,1.67
2018-08-13T14:22:05.611Z,1.60
2018-08-13T14:24:36.780Z,1.60
2018-08-13T14:27:04.909Z,1.83
2018-08-13T14:29:40.393Z,2.20
2018-08-13T14:32:10.253Z,2.00
2018-08-13T14:34:40.161Z,2.20
2018-08-13T14:37:09.106Z,1.90
2018-08-13T14:39:42.368Z,1.80
2018-08-13T14:42:11.072Z,1.60
2018-08-13T14:44:39.566Z,1.50
2018-08-13T14:47:08.539Z,1.50
2018-08-13T14:49:37.829Z,1.60
2018-08-13T14:52:06.974Z,1.73
2018-08-13T14:54:35.356Z,1.50
2018-08-13T14:57:03.857Z,1.73
2018-08-13T14:59:32.029Z,1.83
2018-08-13T15:02:02.175Z,1.93
2018-08-13T15:04:31.164Z,1.70
2018-08-13T15:07:01.625Z,1.53
2018-08-13T15:09:29.767Z,2.13
2018-08-13T15:12:11.064Z,1.63
2018-08-13T15:14:39.267Z,1.80
2018-08-13T15:17:08.804Z,1.73
2018-08-13T15:19:37.313Z,1.70
2018-08-13T15:22:09.493Z,1.93
2018-08-13T15:24:41.878Z,1.57
2018-08-13T15:27:18.465Z,1.60
2018-08-13T15:29:47.346Z,1.60
2018-08-13T15:32:17.440Z,1.67
2018-08-13T15:34:49.525Z,1.90
2018-08-13T15:37:17.991Z,2.23
2018-08-13T15:39:46.301Z,1.70
2018-08-13T15:42:19.226Z,1.70
2018-08-13T15:44:48.347Z,1.47
2018-08-13T15:47:22.526Z,1.87
2018-08-13T15:49:50.646Z,1.60
2018-08-13T15:52:28.430Z,1.53
2018-08-13T15:54:57.039Z,1.70
2018-08-13T15:57:33.482Z,1.60
2018-08-13T16:00:02.326Z,1.50
2018-08-13T16:02:30.550Z,2.10
2018-08-13T16:04:59.309Z,1.60
2018-08-13T16:07:40.269Z,1.73
2018-08-13T16:10:12.301Z,1.67
2018-08-13T16:12:41.141Z,1.90
2018-08-13T16:15:10.221Z,2.30
2018-08-13T16:17:40.566Z,2.00
2018-08-13T16:20:14.127Z,1.80
2018-08-13T16:22:43.666Z,2.00
2018-08-13T16:25:11.784Z,2.10
2018-08-13T16:27:42.822Z,2.30
2018-08-13T16:30:17.722Z,2.10
2018-08-13T16:32:48.153Z,2.13
2018-08-13T16:35:17.517Z,1.97
2018-08-13T16:37:47.825Z,1.80
2018-08-13T16:40:17.192Z,1.93
2018-08-13T16:42:58.450Z,1.97
2018-08-13T16:45:27.161Z,2.23
2018-08-13T16:47:56.529Z,2.00
2018-08-13T16:50:27.913Z,1.70
2018-08-13T16:52:56.909Z,1.70
2018-08-13T16:55:26.107Z,1.83
2018-08-13T16:57:59.163Z,1.70
2018-08-13T17:00:28.943Z,1.70
2018-08-13T17:03:10.635Z,2.13
2018-08-13T17:05:39.429Z,1.30
2018-08-13T17:08:08.273Z,1.17
2018-08-13T17:10:38.745Z,1.40
2018-08-13T17:13:10.170Z,1.30
2018-08-13T17:15:39.173Z,1.57
2018-08-13T17:18:12.365Z,1.80
2018-08-13T17:20:47.870Z,1.43
2018-08-13T17:23:19.616Z,1.40
2018-08-13T17:25:48.969Z,1.20
2018-08-13T17:28:19.134Z,1.70
2018-08-13T17:30:50.603Z,1.43
2018-08-13T17:33:19.035Z,1.50
2018-08-13T17:35:47.494Z,1.53
2018-08-13T17:38:28.861Z,1.53
2018-08-13T17:40:58.650Z,1.73
2018-08-13T17:43:32.462Z,1.57
2018-08-13T17:46:01.574Z,1.60
2018-08-13T17:48:31.568Z,1.50
2018-08-13T17:50:59.697Z,1.57
2018-08-13T17:53:29.971Z,1.70
2018-08-13T17:55:59.402Z,1.80
2018-08-13T17:58:31.368Z,2.03
2018-08-13T18:01:01.411Z,1.60
2018-08-13T18:03:38.451Z,1.50
2018-08-13T18:06:08.772Z,1.73
2018-08-13T18:08:40.070Z,1.60
2018-08-13T18:11:10.219Z,1.83
2018-08-13T18:13:42.622Z,1.77
2018-08-13T18:16:12.177Z,1.73
2018-08-13T18:18:42.569Z,1.53
2018-08-13T18:21:12.174Z,1.60
2018-08-13T18:23:45.197Z,1.80
2018-08-13T18:26:13.841Z,1.70
2018-08-13T18:28:47.351Z,1.53
2018-08-13T18:31:15.820Z,1.60
2018-08-13T18:33:49.670Z,1.43
2018-08-13T18:36:19.164Z,1.50
2018-08-13T18:39:00.541Z,1.73
2018-08-13T18:44:06.102Z,1.83
2018-08-13T18:46:35.433Z,1.50
2018-08-13T18:49:03.874Z,1.60
2018-08-13T18:51:32.551Z,1.77
2018-08-13T18:54:04.824Z,1.50
2018-08-13T18:56:33.590Z,1.77
2018-08-13T19:01:40.916Z,1.93
2018-08-13T19:04:10.445Z,1.90
2018-08-13T19:06:43.315Z,1.77
2018-08-13T19:09:11.616Z,1.97
2018-08-13T19:11:42.246Z,1.60
2018-08-13T19:14:17.316Z,1.80
2018-08-13T19:16:48.165Z,1.50
2018-08-13T19:19:18.284Z,1.97
2018-08-13T19:21:47.303Z,1.90
2018-08-13T19:24:19.452Z,2.27
2018-08-13T19:26:48.157Z,1.57
2018-08-13T19:29:30.562Z,1.90
2018-08-13T19:32:01.085Z,1.80
2018-08-13T19:34:30.168Z,2.10
2018-08-13T19:37:00.172Z,2.03
2018-08-13T19:39:32.241Z,1.93
2018-08-13T19:42:01.326Z,2.00
2018-08-13T19:44:30.487Z,2.00
2018-08-13T19:47:01.805Z,2.50
2018-08-13T19:49:32.429Z,2.50
2018-08-13T19:52:00.927Z,2.20
2018-08-13T19:54:37.970Z,1.80
2018-08-13T19:57:14.167Z,2.10
2018-08-13T19:59:45.668Z,2.40
2018-08-13T20:02:16.548Z,1.87
2018-08-13T20:04:45.808Z,2.33
2018-08-13T20:07:14.185Z,2.33
2018-08-13T20:09:46.549Z,2.40
2018-08-13T20:12:15.951Z,2.60
2018-08-13T20:14:45.824Z,2.63
2018-08-13T20:17:15.962Z,2.53
2018-08-13T20:19:50.006Z,2.60
2018-08-13T20:22:21.157Z,2.70
2018-08-13T20:24:49.847Z,2.20
2018-08-13T20:27:21.773Z,2.80
2018-08-13T20:29:54.045Z,2.70
2018-08-13T20:32:24.241Z,3.30
2018-08-13T20:38:12.393Z,2.77
2018-08-13T20:40:40.729Z,2.30
2018-08-13T20:43:11.274Z,2.50
2018-08-13T20:45:40.766Z,2.50
2018-08-13T20:48:14.448Z,2.40
2018-08-13T20:50:42.997Z,2.40
2018-08-13T20:53:18.538Z,2.37
2018-08-13T20:55:47.159Z,2.17
2018-08-13T20:58:18.789Z,2.60
2018-08-13T21:00:48.224Z,2.17
2018-08-13T21:03:19.159Z,2.63
2018-08-13T21:05:48.537Z,2.47
2018-08-13T21:08:21.666Z,2.20
2018-08-13T21:10:53.390Z,2.40
2018-08-13T21:13:30.237Z,2.73
2018-08-13T21:15:59.151Z,2.33
2018-08-13T21:18:28.533Z,2.33
2018-08-13T21:20:59.642Z,2.23
2018-08-13T21:23:28.821Z,2.50
2018-08-13T21:25:57.993Z,2.70
2018-08-13T21:28:27.349Z,2.60
2018-08-13T21:30:55.469Z,2.57
2018-08-13T21:33:26.537Z,2.60
2018-08-13T21:35:56.869Z,2.50
2018-08-13T21:38:28.670Z,2.70
2018-08-13T21:40:57.245Z,3.20
2018-08-13T21:43:30.254Z,2.80
2018-08-13T21:45:59.630Z,3.00
2018-08-13T21:48:33.237Z,2.77
2018-08-13T21:51:02.137Z,3.23
2018-08-13T21:53:36.167Z,2.40
2018-08-13T21:56:05.510Z,2.80
2018-08-13T21:58:40.070Z,2.83
2018-08-13T22:01:13.796Z,2.70
2018-08-13T22:03:43.097Z,3.07
2018-08-13T22:06:11.344Z,2.93
2018-08-13T22:08:44.463Z,3.20
2018-08-13T22:11:13.615Z,3.00
2018-08-13T22:13:47.477Z,3.13
2018-08-13T22:16:16.827Z,2.83
2018-08-13T22:18:51.465Z,3.17
2018-08-13T22:21:19.821Z,3.17
2018-08-13T22:23:56.767Z,2.77
2018-08-13T22:26:25.173Z,3.13
2018-08-13T22:28:55.134Z,3.23
2018-08-13T22:31:23.882Z,3.13
2018-08-13T22:33:58.305Z,3.13
2018-08-13T22:36:26.450Z,3.77
2018-08-13T22:39:07.438Z,3.67
2018-08-13T22:41:35.869Z,3.00
2018-08-13T22:44:05.492Z,2.77
2018-08-13T22:46:33.858Z,3.53
2018-08-13T22:49:05.725Z,3.00
2018-08-13T22:51:34.162Z,3.07
2018-08-13T22:54:02.417Z,3.33
2018-08-13T22:56:30.838Z,3.90
2018-08-13T22:58:59.166Z,4.23
2018-08-13T23:01:27.514Z,4.33
2018-08-13T23:03:56.039Z,3.60
2018-08-13T23:06:25.143Z,4.43
2018-08-13T23:08:53.262Z,4.50
2018-08-13T23:11:21.985Z,4.90
2018-08-13T23:13:50.122Z,4.93
2018-08-13T23:16:21.583Z,4.53
2018-08-13T23:18:50.040Z,5.20
2018-08-13T23:21:30.517Z,4.60
2018-08-13T23:23:58.971Z,4.83
2018-08-13T23:26:27.157Z,5.53
2018-08-13T23:28:55.278Z,5.43
2018-08-13T23:31:27.009Z,5.47
2018-08-13T23:33:55.425Z,5.57
2018-08-13T23:36:28.445Z,5.93
2018-08-13T23:38:57.066Z,5.60
2018-08-13T23:43:58.297Z,5.73
2018-08-13T23:46:32.370Z,6.50
2018-08-13T23:49:00.607Z,5.27
2018-08-13T23:54:03.843Z,6.60
2018-08-13T23:56:40.151Z,6.30
2018-08-13T23:59:08.277Z,6.53
